createdAt,value
2017-11-09T00:00:20.800Z,943.7
2017-11-09T00:01:29.005Z,943.7
2017-11-09T00:02:36.906Z,943.7
2017-11-09T00:03:45.013Z,943.7
2017-11-09T00:04:53.084Z,943.7
2017-11-09T00:06:01.219Z,943.7
2017-11-09T00:07:09.252Z,943.7
2017-11-09T00:08:17.334Z,943.7
2017-11-09T00:09:25.424Z,943.7
2017-11-09T00:10:33.508Z,943.7
2017-11-09T00:11:41.711Z,943.7
2017-11-09T00:12:49.679Z,943.7
2017-11-09T00:13:57.762Z,943.7
2017-11-09T00:15:06.048Z,943.7
2017-11-09T00:16:13.989Z,943.7
2017-11-09T00:17:22.166Z,943.8
2017-11-09T00:18:30.351Z,943.7
2017-11-09T00:19:38.279Z,943.7
2017-11-09T00:20:46.277Z,943.7
2017-11-09T00:21:54.368Z,943.7
2017-11-09T00:23:02.716Z,943.7
2017-11-09T00:24:10.844Z,943.7
2017-11-09T00:25:18.773Z,943.7
2017-11-09T00:26:26.854Z,943.7
2017-11-09T00:27:34.942Z,943.7
2017-11-09T00:28:43.081Z,943.7
2017-11-09T00:29:51.109Z,943.7
2017-11-09T00:30:59.207Z,943.7
2017-11-09T00:32:07.337Z,943.8
2017-11-09T00:33:15.394Z,943.7
2017-11-09T00:34:23.601Z,943.7
2017-11-09T00:35:31.564Z,943.7
2017-11-09T00:36:39.654Z,943.7
2017-11-09T00:37:47.897Z,943.7
2017-11-09T00:38:55.824Z,943.7
2017-11-09T00:40:03.967Z,943.7
2017-11-09T00:41:11.994Z,943.7
2017-11-09T00:42:20.250Z,943.7
2017-11-09T00:43:28.172Z,943.7
2017-11-09T00:44:36.252Z,943.7
2017-11-09T00:45:44.395Z,943.7
2017-11-09T00:46:52.424Z,943.7
2017-11-09T00:48:00.716Z,943.7
2017-11-09T00:49:08.597Z,943.7
2017-11-09T00:50:16.682Z,943.7
2017-11-09T00:51:24.845Z,943.7
2017-11-09T00:52:32.940Z,943.7
2017-11-09T00:53:40.961Z,943.7
2017-11-09T00:54:49.048Z,943.7
2017-11-09T00:55:57.130Z,943.7
2017-11-09T00:57:05.341Z,943.7
2017-11-09T00:58:13.308Z,943.7
2017-11-09T00:59:21.399Z,943.7
2017-11-09T01:00:29.480Z,943.7
2017-11-09T01:01:37.570Z,943.7
2017-11-09T01:02:45.716Z,943.7
2017-11-09T01:03:53.792Z,943.7
2017-11-09T01:05:01.823Z,943.7
2017-11-09T01:06:09.921Z,943.7
2017-11-09T01:07:17.997Z,943.7
2017-11-09T01:08:26.202Z,943.7
2017-11-09T01:09:34.173Z,943.7
2017-11-09T01:10:42.306Z,943.7
2017-11-09T01:11:50.365Z,943.7
2017-11-09T01:12:58.458Z,943.7
2017-11-09T01:14:06.596Z,943.7
2017-11-09T01:15:14.626Z,943.7
2017-11-09T01:16:22.711Z,943.8
2017-11-09T01:17:30.798Z,943.8
2017-11-09T01:18:38.884Z,943.8
2017-11-09T01:19:47.091Z,943.8
2017-11-09T01:20:55.055Z,943.8
2017-11-09T01:22:03.141Z,943.8
2017-11-09T01:23:11.227Z,943.7
2017-11-09T01:24:19.433Z,943.7
2017-11-09T01:25:27.620Z,943.7
2017-11-09T01:26:35.491Z,943.7
2017-11-09T01:27:43.576Z,943.7
2017-11-09T01:28:51.690Z,943.7
2017-11-09T01:29:59.741Z,943.7
2017-11-09T01:31:07.898Z,943.7
2017-11-09T01:32:15.912Z,943.7
2017-11-09T01:33:23.999Z,943.7
2017-11-09T01:34:32.161Z,943.7
2017-11-09T01:35:40.429Z,943.7
2017-11-09T01:36:48.319Z,943.7
2017-11-09T01:37:56.359Z,943.7
2017-11-09T01:39:04.442Z,943.7
2017-11-09T01:40:12.558Z,943.7
2017-11-09T01:41:20.635Z,943.7
2017-11-09T01:42:28.777Z,943.7
2017-11-09T01:43:36.811Z,943.7
2017-11-09T01:44:44.898Z,943.7
2017-11-09T01:45:52.983Z,943.6
2017-11-09T01:47:01.255Z,943.6
2017-11-09T01:48:09.274Z,943.6
2017-11-09T01:49:17.242Z,943.7
2017-11-09T01:50:25.325Z,943.7
2017-11-09T01:51:33.664Z,943.6
2017-11-09T01:52:41.498Z,943.6
2017-11-09T01:53:49.652Z,943.6
2017-11-09T01:54:57.680Z,943.6
2017-11-09T01:56:05.768Z,943.6
2017-11-09T01:57:13.877Z,943.6
2017-11-09T01:58:21.945Z,943.6
2017-11-09T01:59:30.152Z,943.6
2017-11-09T02:00:38.119Z,943.6
2017-11-09T02:01:46.219Z,943.6
2017-11-09T02:02:54.290Z,943.6
2017-11-09T02:04:02.389Z,943.6
2017-11-09T02:05:10.588Z,943.6
2017-11-09T02:06:18.547Z,943.6
2017-11-09T02:07:26.689Z,943.6
2017-11-09T02:08:34.719Z,943.5
2017-11-09T02:09:42.806Z,943.6
2017-11-09T02:10:50.948Z,943.6
2017-11-09T02:11:58.977Z,943.6
2017-11-09T02:13:07.061Z,943.6
2017-11-09T02:14:15.146Z,943.6
2017-11-09T02:15:23.266Z,943.6
2017-11-09T02:16:31.891Z,943.6
2017-11-09T02:17:39.421Z,943.6
2017-11-09T02:18:47.492Z,943.6
2017-11-09T02:19:55.576Z,943.6
2017-11-09T02:21:03.665Z,943.6
2017-11-09T02:22:11.807Z,943.7
2017-11-09T02:23:20.147Z,943.7
2017-11-09T02:24:28.033Z,943.6
2017-11-09T02:25:36.019Z,943.6
2017-11-09T02:26:44.104Z,943.6
2017-11-09T02:27:52.245Z,943.6
2017-11-09T02:29:00.393Z,943.6
2017-11-09T02:30:08.367Z,943.6
2017-11-09T02:31:16.447Z,943.6
2017-11-09T02:32:24.534Z,943.5
2017-11-09T02:33:33.122Z,943.5
2017-11-09T02:34:40.706Z,943.5
2017-11-09T02:35:48.792Z,943.6
2017-11-09T02:36:56.876Z,943.6
2017-11-09T02:38:05.072Z,943.6
2017-11-09T02:39:13.189Z,943.6
2017-11-09T02:40:21.146Z,943.6
2017-11-09T02:41:29.234Z,943.6
2017-11-09T02:42:37.318Z,943.6
2017-11-09T02:43:45.405Z,943.6
2017-11-09T02:44:53.609Z,943.6
2017-11-09T02:46:01.579Z,943.6
2017-11-09T02:47:09.682Z,943.7
2017-11-09T02:48:17.749Z,943.6
2017-11-09T02:49:25.837Z,943.7
2017-11-09T02:50:33.975Z,943.7
2017-11-09T02:51:42.040Z,943.6
2017-11-09T02:52:50.099Z,943.6
2017-11-09T02:53:58.176Z,943.7
2017-11-09T02:55:06.383Z,943.6
2017-11-09T02:56:14.405Z,943.6
2017-11-09T02:57:22.434Z,943.6
2017-11-09T02:58:30.524Z,943.6
2017-11-09T02:59:38.604Z,943.7
2017-11-09T03:00:46.704Z,943.6
2017-11-09T03:01:54.894Z,943.7
2017-11-09T03:03:02.872Z,943.7
2017-11-09T03:04:10.958Z,943.6
2017-11-09T03:05:19.061Z,943.7
2017-11-09T03:06:27.169Z,943.7
2017-11-09T03:07:35.308Z,943.6
2017-11-09T03:08:43.337Z,943.7
2017-11-09T03:09:51.516Z,943.7
2017-11-09T03:10:59.556Z,943.6
2017-11-09T03:12:07.585Z,943.7
2017-11-09T03:13:15.796Z,943.7
2017-11-09T03:14:23.865Z,943.7
2017-11-09T03:15:31.862Z,943.7
2017-11-09T03:16:39.929Z,943.7
2017-11-09T03:17:48.032Z,943.7
2017-11-09T03:18:56.170Z,943.7
2017-11-09T03:20:04.325Z,943.7
2017-11-09T03:21:12.284Z,943.7
2017-11-09T03:22:20.369Z,943.7
2017-11-09T03:23:28.470Z,943.7
2017-11-09T03:24:36.628Z,943.8
2017-11-09T03:25:44.657Z,943.8
2017-11-09T03:26:52.826Z,943.8
2017-11-09T03:28:00.830Z,943.7
2017-11-09T03:29:09.032Z,943.8
2017-11-09T03:30:17.190Z,943.7
2017-11-09T03:31:25.087Z,943.8
2017-11-09T03:32:33.170Z,943.8
2017-11-09T03:33:41.380Z,943.8
2017-11-09T03:34:49.345Z,943.7
2017-11-09T03:35:57.486Z,943.8
2017-11-09T03:37:05.520Z,943.7
2017-11-09T03:38:13.612Z,943.8
2017-11-09T03:39:21.708Z,943.8
2017-11-09T03:40:29.794Z,943.8
2017-11-09T03:41:37.940Z,943.8
2017-11-09T03:42:46.167Z,943.8
2017-11-09T03:43:54.048Z,943.8
2017-11-09T03:45:02.167Z,943.8
2017-11-09T03:46:10.221Z,943.8
2017-11-09T03:47:18.371Z,943.8
2017-11-09T03:48:26.392Z,943.8
2017-11-09T03:49:34.479Z,943.8
2017-11-09T03:50:42.562Z,943.8
2017-11-09T03:51:50.650Z,943.8
2017-11-09T03:52:58.793Z,943.8
2017-11-09T03:54:06.822Z,943.8
2017-11-09T03:55:14.907Z,943.8
2017-11-09T03:56:23.104Z,943.8
2017-11-09T03:57:31.077Z,943.8
2017-11-09T03:58:39.284Z,943.8
2017-11-09T03:59:47.258Z,943.8
2017-11-09T04:00:55.435Z,943.8
2017-11-09T04:02:03.423Z,943.8
2017-11-09T04:03:11.507Z,943.8
2017-11-09T04:04:19.652Z,943.8
2017-11-09T04:05:27.677Z,943.8
2017-11-09T04:06:35.763Z,943.9
2017-11-09T04:07:43.851Z,943.8
2017-11-09T04:08:52.120Z,943.8
2017-11-09T04:10:00.520Z,943.9
2017-11-09T04:11:08.291Z,943.8
2017-11-09T04:12:16.381Z,943.8
2017-11-09T04:13:24.467Z,943.8
2017-11-09T04:14:32.700Z,943.8
2017-11-09T04:15:40.692Z,943.8
2017-11-09T04:16:48.722Z,943.8
2017-11-09T04:17:56.978Z,943.8
2017-11-09T04:19:04.976Z,943.8
2017-11-09T04:20:12.978Z,943.8
2017-11-09T04:21:21.118Z,943.8
2017-11-09T04:22:29.170Z,943.8
2017-11-09T04:23:37.309Z,943.8
2017-11-09T04:24:45.337Z,943.8
2017-11-09T04:25:53.424Z,943.8
2017-11-09T04:27:01.566Z,943.8
2017-11-09T04:28:09.663Z,943.8
2017-11-09T04:29:17.678Z,943.8
2017-11-09T04:30:25.821Z,943.8
2017-11-09T04:31:33.849Z,943.8
2017-11-09T04:32:41.993Z,943.9
2017-11-09T04:33:50.021Z,943.9
2017-11-09T04:34:58.115Z,943.9
2017-11-09T04:36:06.200Z,943.9
2017-11-09T04:37:14.364Z,943.9
2017-11-09T04:38:22.472Z,943.9
2017-11-09T04:39:30.475Z,943.9
2017-11-09T04:40:38.555Z,943.9
2017-11-09T04:41:46.646Z,944.0
2017-11-09T04:42:54.725Z,944.0
2017-11-09T04:44:02.867Z,944.0
2017-11-09T04:45:10.893Z,944.0
2017-11-09T04:46:19.213Z,944.0
2017-11-09T04:47:27.076Z,944.0
2017-11-09T04:48:35.156Z,944.1
2017-11-09T04:49:43.301Z,944.1
2017-11-09T04:50:51.337Z,944.0
2017-11-09T04:51:59.546Z,944.1
2017-11-09T04:53:07.500Z,944.1
2017-11-09T04:54:15.583Z,944.1
2017-11-09T04:55:23.729Z,944.1
2017-11-09T04:56:31.933Z,944.1
2017-11-09T04:57:39.862Z,944.1
2017-11-09T04:58:47.923Z,944.1
2017-11-09T04:59:56.105Z,944.1
2017-11-09T05:01:04.190Z,944.1
2017-11-09T05:02:12.238Z,944.2
2017-11-09T05:03:20.265Z,944.2
2017-11-09T05:04:28.352Z,944.1
2017-11-09T05:05:36.480Z,944.1
2017-11-09T05:06:44.585Z,944.1
2017-11-09T05:07:52.610Z,944.1
2017-11-09T05:09:00.704Z,944.1
2017-11-09T05:10:10.588Z,944.2
2017-11-09T05:11:18.691Z,944.2
2017-11-09T05:12:26.963Z,944.2
2017-11-09T05:13:34.862Z,944.2
2017-11-09T05:14:42.944Z,944.2
2017-11-09T05:15:51.119Z,944.2
2017-11-09T05:16:59.192Z,944.2
2017-11-09T05:18:07.338Z,944.2
2017-11-09T05:19:15.362Z,944.2
2017-11-09T05:20:23.567Z,944.2
2017-11-09T05:21:31.533Z,944.2
2017-11-09T05:22:39.619Z,944.2
2017-11-09T05:23:47.759Z,944.2
2017-11-09T05:24:55.905Z,944.2
2017-11-09T05:26:03.869Z,944.2
2017-11-09T05:27:11.965Z,944.2
2017-11-09T05:28:20.039Z,944.2
2017-11-09T05:29:28.181Z,944.2
2017-11-09T05:30:36.255Z,944.2
2017-11-09T05:31:44.339Z,944.2
2017-11-09T05:32:52.424Z,944.3
2017-11-09T05:34:00.567Z,944.2
2017-11-09T05:35:08.652Z,944.2
2017-11-09T05:36:16.680Z,944.3
2017-11-09T05:37:24.788Z,944.3
2017-11-09T05:38:32.864Z,944.3
2017-11-09T05:39:40.980Z,944.3
2017-11-09T05:40:49.075Z,944.3
2017-11-09T05:41:57.106Z,944.3
2017-11-09T05:43:05.197Z,944.3
2017-11-09T05:44:13.335Z,944.4
2017-11-09T05:45:21.359Z,944.3
2017-11-09T05:46:29.502Z,944.4
2017-11-09T05:47:37.537Z,944.4
2017-11-09T05:48:45.622Z,944.3
2017-11-09T05:49:53.829Z,944.4
2017-11-09T05:51:01.791Z,944.4
2017-11-09T05:52:09.931Z,944.4
2017-11-09T05:53:17.961Z,944.4
2017-11-09T05:54:26.052Z,944.4
2017-11-09T05:55:34.131Z,944.4
2017-11-09T05:56:42.217Z,944.4
2017-11-09T05:57:50.356Z,944.4
2017-11-09T05:58:58.395Z,944.5
2017-11-09T06:00:06.477Z,944.5
2017-11-09T06:01:14.806Z,944.4
2017-11-09T06:02:22.658Z,944.5
2017-11-09T06:03:30.797Z,944.5
2017-11-09T06:04:38.826Z,944.5
2017-11-09T06:05:46.967Z,944.5
2017-11-09T06:06:55.086Z,944.5
2017-11-09T06:08:03.103Z,944.5
2017-11-09T06:09:11.234Z,944.5
2017-11-09T06:10:19.265Z,944.6
2017-11-09T06:11:27.422Z,944.6
2017-11-09T06:12:35.431Z,944.6
2017-11-09T06:13:43.517Z,944.7
2017-11-09T06:14:53.798Z,944.7
2017-11-09T06:15:59.873Z,944.7
2017-11-09T06:17:07.770Z,944.7
2017-11-09T06:18:16.332Z,944.8
2017-11-09T06:19:24.470Z,944.7
2017-11-09T06:20:32.540Z,944.8
2017-11-09T06:21:40.534Z,944.8
2017-11-09T06:22:48.556Z,944.8
2017-11-09T06:23:56.644Z,944.8
2017-11-09T06:25:04.725Z,944.8
2017-11-09T06:26:12.870Z,944.9
2017-11-09T06:27:20.903Z,944.9
2017-11-09T06:28:29.066Z,944.9
2017-11-09T06:29:37.074Z,944.9
2017-11-09T06:30:45.163Z,945.0
2017-11-09T06:31:53.301Z,944.9
2017-11-09T06:33:01.328Z,945.0
2017-11-09T06:34:09.415Z,945.0
2017-11-09T06:35:17.498Z,945.0
2017-11-09T06:36:25.584Z,945.0
2017-11-09T06:37:33.795Z,945.0
2017-11-09T06:38:41.758Z,945.0
2017-11-09T06:39:49.843Z,945.0
2017-11-09T06:40:57.925Z,945.0
2017-11-09T06:42:06.013Z,945.0
2017-11-09T06:43:14.160Z,945.1
2017-11-09T06:44:22.181Z,945.1
2017-11-09T06:45:30.276Z,945.1
2017-11-09T06:46:38.359Z,945.1
2017-11-09T06:47:46.444Z,945.1
2017-11-09T06:48:54.586Z,945.2
2017-11-09T06:50:02.625Z,945.2
2017-11-09T06:51:10.703Z,945.2
2017-11-09T06:52:18.927Z,945.2
2017-11-09T06:53:26.927Z,945.2
2017-11-09T06:54:35.079Z,945.2
2017-11-09T06:55:43.041Z,945.2
2017-11-09T06:56:51.156Z,945.2
2017-11-09T06:57:59.211Z,945.2
2017-11-09T06:59:07.297Z,945.2
2017-11-09T07:00:15.436Z,945.2
2017-11-09T07:01:23.464Z,945.2
2017-11-09T07:02:31.553Z,945.3
2017-11-09T07:03:39.637Z,945.3
2017-11-09T07:04:47.721Z,945.4
2017-11-09T07:05:55.937Z,945.3
2017-11-09T07:07:03.902Z,945.4
2017-11-09T07:08:11.986Z,945.4
2017-11-09T07:09:20.193Z,945.4
2017-11-09T07:10:28.159Z,945.4
2017-11-09T07:11:36.302Z,945.4
2017-11-09T07:12:44.327Z,945.5
2017-11-09T07:13:52.412Z,945.5
2017-11-09T07:15:00.835Z,945.5
2017-11-09T07:16:08.905Z,945.5
2017-11-09T07:17:17.046Z,945.5
2017-11-09T07:18:25.073Z,945.5
2017-11-09T07:19:33.169Z,945.6
2017-11-09T07:20:41.243Z,945.6
2017-11-09T07:21:49.342Z,945.6
2017-11-09T07:22:57.612Z,945.6
2017-11-09T07:24:05.507Z,945.6
2017-11-09T07:25:13.658Z,945.7
2017-11-09T07:26:21.680Z,945.6
2017-11-09T07:27:29.831Z,945.7
2017-11-09T07:28:37.968Z,945.7
2017-11-09T07:29:45.942Z,945.7
2017-11-09T07:30:54.027Z,945.8
2017-11-09T07:32:02.183Z,945.7
2017-11-09T07:33:10.218Z,945.8
2017-11-09T07:34:18.365Z,945.8
2017-11-09T07:35:26.387Z,945.8
2017-11-09T07:36:34.480Z,945.8
2017-11-09T07:37:42.565Z,945.8
2017-11-09T07:38:50.651Z,945.9
2017-11-09T07:39:58.864Z,945.9
2017-11-09T07:41:06.880Z,945.9
2017-11-09T07:42:14.920Z,945.9
2017-11-09T07:43:23.005Z,945.9
2017-11-09T07:44:31.091Z,945.9
2017-11-09T07:45:39.302Z,946.0
2017-11-09T07:46:47.266Z,946.0
2017-11-09T07:47:55.351Z,945.9
2017-11-09T07:49:03.436Z,945.9
2017-11-09T07:50:11.523Z,945.9
2017-11-09T07:51:19.746Z,945.9
2017-11-09T07:52:27.691Z,945.9
2017-11-09T07:53:35.775Z,945.9
2017-11-09T07:54:43.865Z,945.9
2017-11-09T07:55:51.947Z,946.0
2017-11-09T07:57:00.152Z,946.0
2017-11-09T07:58:08.119Z,946.0
2017-11-09T07:59:16.203Z,946.0
2017-11-09T08:00:24.288Z,946.0
2017-11-09T08:01:32.374Z,946.0
2017-11-09T08:02:40.576Z,946.0
2017-11-09T08:03:48.539Z,946.0
2017-11-09T08:04:56.624Z,946.0
2017-11-09T08:06:04.711Z,946.0
2017-11-09T08:07:12.796Z,946.0
2017-11-09T08:08:21.132Z,946.0
2017-11-09T08:09:29.068Z,946.0
2017-11-09T08:10:37.195Z,946.0
2017-11-09T08:11:45.243Z,946.0
2017-11-09T08:12:53.378Z,946.0
2017-11-09T08:14:01.470Z,946.0
2017-11-09T08:15:09.497Z,946.1
2017-11-09T08:16:17.582Z,946.1
2017-11-09T08:17:25.666Z,946.1
2017-11-09T08:18:33.750Z,946.1
2017-11-09T08:19:41.963Z,946.1
2017-11-09T08:20:49.924Z,946.1
2017-11-09T08:21:58.010Z,946.1
2017-11-09T08:23:06.101Z,946.1
2017-11-09T08:24:14.176Z,946.1
2017-11-09T08:25:22.319Z,946.2
2017-11-09T08:26:30.497Z,946.1
2017-11-09T08:27:38.512Z,946.1
2017-11-09T08:28:46.575Z,946.1
2017-11-09T08:29:54.601Z,946.1
2017-11-09T08:31:02.744Z,946.2
2017-11-09T08:32:10.777Z,946.1
2017-11-09T08:33:18.857Z,946.2
2017-11-09T08:34:26.943Z,946.2
2017-11-09T08:35:35.029Z,946.2
2017-11-09T08:36:43.302Z,946.2
2017-11-09T08:37:51.197Z,946.2
2017-11-09T08:38:59.288Z,946.2
2017-11-09T08:40:07.370Z,946.2
2017-11-09T08:41:15.589Z,946.2
2017-11-09T08:42:23.595Z,946.2
2017-11-09T08:43:31.631Z,946.2
2017-11-09T08:44:39.772Z,946.2
2017-11-09T08:45:47.960Z,946.2
2017-11-09T08:46:55.891Z,946.2
2017-11-09T08:48:04.092Z,946.2
2017-11-09T08:49:12.055Z,946.2
2017-11-09T08:50:20.283Z,946.2
2017-11-09T08:51:28.227Z,946.2
2017-11-09T08:52:36.315Z,946.2
2017-11-09T08:53:44.459Z,946.2
2017-11-09T08:54:52.484Z,946.2
2017-11-09T08:56:00.568Z,946.2
2017-11-09T08:57:08.653Z,946.2
2017-11-09T08:58:16.737Z,946.2
2017-11-09T08:59:24.877Z,946.2
2017-11-09T09:00:33.044Z,946.2
2017-11-09T09:01:40.993Z,946.2
2017-11-09T09:02:49.078Z,946.2
2017-11-09T09:03:57.165Z,946.2
2017-11-09T09:05:05.584Z,946.2
2017-11-09T09:06:13.332Z,946.3
2017-11-09T09:07:21.417Z,946.2
2017-11-09T09:08:29.503Z,946.3
2017-11-09T09:09:37.586Z,946.2
2017-11-09T09:10:45.727Z,946.3
2017-11-09T09:11:53.758Z,946.3
2017-11-09T09:13:02.012Z,946.3
2017-11-09T09:14:10.015Z,946.2
2017-11-09T09:15:18.013Z,946.3
2017-11-09T09:16:26.155Z,946.3
2017-11-09T09:17:34.181Z,946.2
2017-11-09T09:18:42.361Z,946.2
2017-11-09T09:19:50.354Z,946.2
2017-11-09T09:20:58.439Z,946.2
2017-11-09T09:22:06.579Z,946.2
2017-11-09T09:23:14.622Z,946.2
2017-11-09T09:24:22.694Z,946.2
2017-11-09T09:25:30.779Z,946.3
2017-11-09T09:26:38.862Z,946.3
2017-11-09T09:27:47.172Z,946.2
2017-11-09T09:28:55.035Z,946.3
2017-11-09T09:30:03.120Z,946.3
2017-11-09T09:31:11.205Z,946.3
2017-11-09T09:32:19.345Z,946.3
2017-11-09T09:33:27.438Z,946.4
2017-11-09T09:34:35.462Z,946.3
2017-11-09T09:35:43.544Z,946.3
2017-11-09T09:36:51.626Z,946.3
2017-11-09T09:37:59.713Z,946.3
2017-11-09T09:39:07.853Z,946.3
2017-11-09T09:40:15.883Z,946.3
2017-11-09T09:41:23.973Z,946.3
2017-11-09T09:42:32.075Z,946.3
2017-11-09T09:43:40.138Z,946.3
2017-11-09T09:44:48.278Z,946.4
2017-11-09T09:45:56.494Z,946.3
2017-11-09T09:47:04.391Z,946.3
2017-11-09T09:48:12.533Z,946.4
2017-11-09T09:49:20.568Z,946.4
2017-11-09T09:50:28.961Z,946.4
2017-11-09T09:51:36.733Z,946.4
2017-11-09T09:52:44.819Z,946.4
2017-11-09T09:53:52.902Z,946.3
2017-11-09T09:55:00.981Z,946.4
2017-11-09T09:56:09.137Z,946.3
2017-11-09T09:57:17.162Z,946.3
2017-11-09T09:58:25.249Z,946.3
2017-11-09T09:59:33.342Z,946.3
2017-11-09T10:00:41.543Z,946.3
2017-11-09T10:01:49.561Z,946.2
2017-11-09T10:02:57.592Z,946.2
2017-11-09T10:04:05.794Z,946.2
2017-11-09T10:05:13.932Z,946.2
2017-11-09T10:06:21.844Z,946.3
2017-11-09T10:07:29.994Z,946.3
2017-11-09T10:08:38.045Z,946.3
2017-11-09T10:09:46.263Z,946.3
2017-11-09T10:10:54.219Z,946.3
2017-11-09T10:12:02.302Z,946.3
2017-11-09T10:13:10.447Z,946.3
2017-11-09T10:14:18.615Z,946.2
2017-11-09T10:15:26.565Z,946.2
2017-11-09T10:16:34.648Z,946.3
2017-11-09T10:17:42.743Z,946.3
2017-11-09T10:18:50.886Z,946.3
2017-11-09T10:19:59.034Z,946.3
2017-11-09T10:21:07.000Z,946.3
2017-11-09T10:22:15.081Z,946.2
2017-11-09T10:23:23.170Z,946.3
2017-11-09T10:24:31.309Z,946.3
2017-11-09T10:25:39.345Z,946.3
2017-11-09T10:26:47.431Z,946.3
2017-11-09T10:27:55.553Z,946.3
2017-11-09T10:29:03.603Z,946.3
2017-11-09T10:30:11.745Z,946.2
2017-11-09T10:31:19.772Z,946.2
2017-11-09T10:32:27.858Z,946.2
2017-11-09T10:33:35.947Z,946.2
2017-11-09T10:34:44.031Z,946.3
2017-11-09T10:35:52.188Z,946.2
2017-11-09T10:37:00.364Z,946.3
2017-11-09T10:38:08.286Z,946.2
2017-11-09T10:39:16.371Z,946.2
2017-11-09T10:40:24.457Z,946.2
2017-11-09T10:41:32.597Z,946.3
2017-11-09T10:42:40.627Z,946.3
2017-11-09T10:43:48.712Z,946.2
2017-11-09T10:44:56.797Z,946.2
2017-11-09T10:46:05.029Z,946.2
2017-11-09T10:47:13.120Z,946.2
2017-11-09T10:48:21.061Z,946.2
2017-11-09T10:49:29.149Z,946.2
2017-11-09T10:50:37.233Z,946.2
2017-11-09T10:51:45.516Z,946.2
2017-11-09T10:52:53.461Z,946.3
2017-11-09T10:54:01.488Z,946.2
2017-11-09T10:55:09.572Z,946.2
2017-11-09T10:56:17.654Z,946.2
2017-11-09T10:57:25.760Z,946.2
2017-11-09T10:58:33.950Z,946.2
2017-11-09T10:59:41.931Z,946.2
2017-11-09T11:00:50.190Z,946.2
2017-11-09T11:01:58.087Z,946.2
2017-11-09T11:03:06.171Z,946.2
2017-11-09T11:04:14.309Z,946.1
2017-11-09T11:05:22.529Z,946.2
2017-11-09T11:06:30.463Z,946.1
2017-11-09T11:07:38.579Z,946.2
2017-11-09T11:08:46.598Z,946.2
2017-11-09T11:09:54.742Z,946.2
2017-11-09T11:11:02.768Z,946.2
2017-11-09T11:12:10.921Z,946.1
2017-11-09T11:13:18.942Z,946.2
2017-11-09T11:14:27.105Z,946.2
2017-11-09T11:15:35.162Z,946.2
2017-11-09T11:16:43.192Z,946.2
2017-11-09T11:17:51.286Z,946.1
2017-11-09T11:18:59.362Z,946.2
2017-11-09T11:20:07.446Z,946.2
2017-11-09T11:21:15.586Z,946.2
2017-11-09T11:22:23.618Z,946.2
2017-11-09T11:23:31.754Z,946.1
2017-11-09T11:24:39.781Z,946.2
2017-11-09T11:25:47.872Z,946.2
2017-11-09T11:26:56.025Z,946.1
2017-11-09T11:28:04.200Z,946.1
2017-11-09T11:29:12.122Z,946.1
2017-11-09T11:30:20.215Z,946.1
2017-11-09T11:31:28.291Z,946.1
2017-11-09T11:32:36.432Z,946.1
2017-11-09T11:33:44.574Z,946.1
2017-11-09T11:34:52.604Z,946.1
2017-11-09T11:36:01.004Z,946.1
2017-11-09T11:37:09.090Z,946.1
2017-11-09T11:38:17.229Z,946.1
2017-11-09T11:39:25.506Z,946.1
2017-11-09T11:40:33.346Z,946.1
2017-11-09T11:41:41.509Z,946.0
2017-11-09T11:42:49.512Z,946.1
2017-11-09T11:43:57.669Z,946.0
2017-11-09T11:45:05.682Z,946.1
2017-11-09T11:46:13.766Z,946.1
2017-11-09T11:47:21.850Z,946.1
2017-11-09T11:48:29.959Z,946.1
2017-11-09T11:49:38.076Z,946.1
2017-11-09T11:50:46.177Z,946.1
2017-11-09T11:51:54.223Z,946.1
2017-11-09T11:53:02.277Z,946.0
2017-11-09T11:54:10.532Z,946.1
2017-11-09T11:55:18.584Z,946.0
2017-11-09T11:56:26.524Z,946.1
2017-11-09T11:57:34.610Z,946.0
2017-11-09T11:58:42.695Z,946.1
2017-11-09T11:59:50.874Z,946.1
2017-11-09T12:00:58.939Z,946.1
2017-11-09T12:02:06.966Z,946.1
2017-11-09T12:03:15.053Z,946.1
2017-11-09T12:04:23.327Z,946.1
2017-11-09T12:05:31.235Z,946.1
2017-11-09T12:06:39.361Z,946.1
2017-11-09T12:07:47.394Z,946.1
2017-11-09T12:08:55.473Z,946.1
2017-11-09T12:10:03.557Z,946.1
2017-11-09T12:11:11.697Z,946.1
2017-11-09T12:12:19.793Z,946.1
2017-11-09T12:13:27.929Z,946.1
2017-11-09T12:14:36.056Z,946.1
2017-11-09T12:15:43.979Z,946.1
2017-11-09T12:16:52.070Z,946.0
2017-11-09T12:18:00.204Z,946.0
2017-11-09T12:19:08.232Z,946.0
2017-11-09T12:20:16.433Z,946.1
2017-11-09T12:21:24.400Z,946.0
2017-11-09T12:22:32.484Z,946.0
2017-11-09T12:23:40.627Z,946.0
2017-11-09T12:24:48.654Z,946.0
2017-11-09T12:25:56.739Z,946.0
2017-11-09T12:27:04.880Z,946.0
2017-11-09T12:28:12.971Z,946.0
2017-11-09T12:29:21.049Z,946.0
2017-11-09T12:30:29.075Z,946.0
2017-11-09T12:31:37.160Z,946.0
2017-11-09T12:32:45.304Z,946.0
2017-11-09T12:33:53.329Z,946.0
2017-11-09T12:35:02.418Z,946.0
2017-11-09T12:36:09.524Z,946.0
2017-11-09T12:37:17.584Z,946.0
2017-11-09T12:38:25.666Z,946.0
2017-11-09T12:39:33.754Z,946.0
2017-11-09T12:40:41.890Z,946.0
2017-11-09T12:41:49.999Z,946.0
2017-11-09T12:42:58.196Z,946.0
2017-11-09T12:44:06.086Z,945.9
2017-11-09T12:45:14.186Z,945.9
2017-11-09T12:46:22.403Z,945.9
2017-11-09T12:47:30.338Z,945.9
2017-11-09T12:48:38.426Z,945.9
2017-11-09T12:49:46.506Z,945.9
2017-11-09T12:50:54.592Z,945.9
2017-11-09T12:52:02.731Z,946.0
2017-11-09T12:53:10.759Z,946.0
2017-11-09T12:54:18.847Z,946.0
2017-11-09T12:55:27.082Z,946.0
2017-11-09T12:56:35.015Z,946.0
2017-11-09T12:57:43.216Z,946.0
2017-11-09T12:58:51.307Z,946.0
2017-11-09T12:59:59.263Z,946.0
2017-11-09T13:01:07.346Z,946.0
2017-11-09T13:02:15.431Z,946.0
2017-11-09T13:03:23.573Z,945.9
2017-11-09T13:04:31.602Z,945.9
2017-11-09T13:05:39.689Z,945.9
2017-11-09T13:06:47.769Z,945.9
2017-11-09T13:07:55.853Z,946.0
2017-11-09T13:09:04.145Z,945.9
2017-11-09T13:09:04.158Z,945.9
2017-11-09T13:10:12.021Z,945.9
2017-11-09T13:11:20.156Z,945.9
2017-11-09T13:12:28.186Z,945.9
2017-11-09T13:13:36.272Z,945.9
2017-11-09T13:14:44.412Z,945.9
2017-11-09T13:15:52.443Z,945.9
2017-11-09T13:17:00.525Z,945.9
2017-11-09T13:18:08.676Z,945.9
2017-11-09T13:19:16.691Z,945.9
2017-11-09T13:20:24.830Z,945.9
2017-11-09T13:21:32.859Z,945.9
2017-11-09T13:22:40.943Z,945.9
2017-11-09T13:23:49.154Z,945.9
2017-11-09T13:24:57.111Z,945.9
2017-11-09T13:26:05.251Z,945.9
2017-11-09T13:27:13.279Z,945.9
2017-11-09T13:28:21.362Z,945.9
2017-11-09T13:29:29.447Z,945.9
2017-11-09T13:30:37.648Z,946.0
2017-11-09T13:31:45.739Z,946.0
2017-11-09T13:32:53.846Z,946.0
2017-11-09T13:34:01.880Z,946.0
2017-11-09T13:35:09.865Z,946.0
2017-11-09T13:36:17.949Z,946.0
2017-11-09T13:37:26.328Z,946.0
2017-11-09T13:38:34.342Z,946.0
2017-11-09T13:39:42.428Z,946.1
2017-11-09T13:40:50.514Z,946.1
2017-11-09T13:41:58.595Z,946.0
2017-11-09T13:43:06.733Z,946.1
2017-11-09T13:44:14.761Z,946.1
2017-11-09T13:45:22.846Z,946.1
2017-11-09T13:46:31.049Z,946.1
2017-11-09T13:47:39.012Z,946.1
2017-11-09T13:48:47.151Z,946.1
2017-11-09T13:49:55.179Z,946.0
2017-11-09T13:51:03.263Z,946.0
2017-11-09T13:52:11.351Z,946.0
2017-11-09T13:53:19.440Z,946.0
2017-11-09T13:54:27.646Z,946.0
2017-11-09T13:55:35.607Z,946.1
2017-11-09T13:56:43.691Z,946.0
2017-11-09T13:57:51.774Z,946.1
2017-11-09T13:58:59.859Z,946.1
2017-11-09T14:00:08.012Z,946.2
2017-11-09T14:01:16.036Z,946.2
2017-11-09T14:02:24.176Z,946.2
2017-11-09T14:03:32.203Z,946.2
2017-11-09T14:04:40.385Z,946.2
2017-11-09T14:05:48.426Z,946.2
2017-11-09T14:06:56.455Z,946.2
2017-11-09T14:08:04.538Z,946.2
2017-11-09T14:09:12.623Z,946.2
2017-11-09T14:10:20.706Z,946.2
2017-11-09T14:11:28.845Z,946.2
2017-11-09T14:12:36.884Z,946.2
2017-11-09T14:13:45.182Z,946.3
2017-11-09T14:14:53.248Z,946.3
2017-11-09T14:16:01.326Z,946.3
2017-11-09T14:17:09.463Z,946.3
2017-11-09T14:18:17.562Z,946.4
2017-11-09T14:19:25.575Z,946.4
2017-11-09T14:20:33.661Z,946.4
2017-11-09T14:21:41.743Z,946.4
2017-11-09T14:22:50.023Z,946.3
2017-11-09T14:23:58.112Z,946.4
2017-11-09T14:25:06.204Z,946.4
2017-11-09T14:26:14.471Z,946.4
2017-11-09T14:27:22.395Z,946.4
2017-11-09T14:28:30.505Z,946.4
2017-11-09T14:29:38.532Z,946.4
2017-11-09T14:30:46.616Z,946.4
2017-11-09T14:31:54.698Z,946.4
2017-11-09T14:33:02.782Z,946.4
2017-11-09T14:34:10.922Z,946.3
2017-11-09T14:35:18.949Z,946.4